Time;durP1;ratioP1;P1;durP2;ratioP2;P2;SDS_P1;SDS_P2;PMS_P1;PMS_P2;Temp;Humidity;BMP_temperature;BMP_pressure;BME280_temperature;BME280_humidity;BME280_pressure;Samples;Min_cycle;Max_cycle;Signal;HPM_P1;HPM_P2
2022/10/28 00:00:04;;;;;;;15.70;5.55;;;20.10;99.90;;;;;;5092074;28;20028;-59
2022/10/28 00:02:30;;;;;;;13.82;5.72;;;20.00;99.90;;;;;;5092061;28;20085;-59
2022/10/28 00:04:55;;;;;;;14.35;5.28;;;20.00;99.90;;;;;;5092085;28;20032;-59
2022/10/28 00:07:21;;;;;;;14.43;6.20;;;19.90;99.90;;;;;;5092147;28;20020;-59
2022/10/28 00:09:47;;;;;;;15.27;5.63;;;19.90;99.90;;;;;;5092259;28;20032;-59
2022/10/28 00:12:12;;;;;;;12.27;5.22;;;19.90;99.90;;;;;;5092227;28;20500;-59
2022/10/28 00:14:38;;;;;;;19.02;6.07;;;19.90;99.90;;;;;;5090265;28;20073;-59
2022/10/28 00:17:04;;;;;;;15.95;6.20;;;19.80;99.90;;;;;;5071643;28;20081;-59
2022/10/28 00:19:30;;;;;;;17.77;6.40;;;19.90;99.90;;;;;;5072000;28;20454;-60
2022/10/28 00:21:55;;;;;;;14.75;5.90;;;19.90;99.90;;;;;;5071741;28;20029;-59
2022/10/28 00:24:21;;;;;;;17.00;6.05;;;19.80;99.90;;;;;;5071889;28;20024;-59
2022/10/28 00:26:47;;;;;;;18.00;5.55;;;19.70;99.90;;;;;;5071721;28;20127;-60
2022/10/28 00:29:15;;;;;;;17.25;5.45;;;19.70;99.90;;;;;;5071524;28;20020;-59
2022/10/28 00:31:41;;;;;;;13.38;5.70;;;19.70;99.90;;;;;;5071256;28;20020;-59
2022/10/28 00:34:11;;;;;;;16.67;6.70;;;19.50;99.90;;;;;;5074980;28;20019;-59
2022/10/28 00:36:39;;;;;;;17.10;6.65;;;19.40;99.90;;;;;;5091442;28;20129;-60
2022/10/28 00:39:11;;;;;;;12.75;5.95;;;19.40;99.90;;;;;;5092146;28;20024;-59
2022/10/28 00:41:41;;;;;;;11.07;5.32;;;19.50;99.90;;;;;;5092031;28;20105;-59
2022/10/28 00:44:44;;;;;;;16.38;5.50;;;19.50;99.90;;;;;;5090457;28;20367;-59
2022/10/28 00:47:19;;;;;;;16.00;5.95;;;19.40;99.90;;;;;;5091723;28;20081;-59
2022/10/28 00:49:47;;;;;;;16.40;6.10;;;19.40;99.90;;;;;;5091793;28;20083;-60
2022/10/28 00:52:19;;;;;;;14.65;5.93;;;19.50;99.90;;;;;;5091581;28;20076;-59
2022/10/28 00:54:45;;;;;;;18.33;6.70;;;19.40;99.90;;;;;;5091671;28;20035;-59
2022/10/28 00:57:17;;;;;;;16.35;6.03;;;19.40;99.90;;;;;;5091681;28;20039;-59
2022/10/28 00:59:47;;;;;;;18.23;6.13;;;19.40;99.90;;;;;;5091141;28;20024;-59
2022/10/28 01:02:13;;;;;;;17.48;5.85;;;19.40;99.90;;;;;;5091989;28;20020;-59
2022/10/28 01:04:39;;;;;;;17.00;6.35;;;19.30;99.90;;;;;;5091540;28;20031;-59
2022/10/28 01:07:05;;;;;;;15.30;5.70;;;19.30;99.90;;;;;;5091717;28;20032;-59
2022/10/28 01:09:31;;;;;;;17.60;6.13;;;19.50;99.90;;;;;;5091548;28;20375;-59
2022/10/28 01:12:28;;;;;;;19.05;6.13;;;19.50;99.90;;;;;;5091729;28;20038;-59
2022/10/28 01:15:26;;;;;;;13.90;5.32;;;19.40;99.90;;;;;;5087658;28;20040;-59
2022/10/28 01:17:52;;;;;;;14.23;5.38;;;19.40;99.90;;;;;;5071465;28;20024;-59
2022/10/28 01:20:26;;;;;;;15.45;5.93;;;19.50;99.90;;;;;;5071341;28;20028;-59
2022/10/28 01:23:11;;;;;;;14.57;5.75;;;19.60;99.90;;;;;;5071093;28;20027;-59
2022/10/28 01:26:09;;;;;;;16.98;5.75;;;19.60;99.90;;;;;;5070998;28;20044;-59
2022/10/28 01:28:53;;;;;;;16.27;5.65;;;19.60;99.90;;;;;;5070582;28;20029;-59
2022/10/28 01:31:27;;;;;;;15.15;5.68;;;19.50;99.90;;;;;;5071003;28;20035;-59
2022/10/28 01:33:57;;;;;;;13.85;5.47;;;19.50;99.90;;;;;;5072960;28;20066;-59
2022/10/28 01:36:35;;;;;;;16.10;5.65;;;19.50;99.90;;;;;;5090954;28;20039;-59
2022/10/28 01:39:25;;;;;;;14.57;5.40;;;19.40;99.90;;;;;;5091784;28;20020;-59
2022/10/28 01:42:07;;;;;;;16.13;5.70;;;19.50;99.90;;;;;;5089558;28;20044;-59
2022/10/28 01:44:56;;;;;;;18.13;5.97;;;19.50;99.90;;;;;;5091695;28;20453;-59
2022/10/28 01:47:27;;;;;;;16.38;5.65;;;19.40;99.90;;;;;;5094602;28;20031;-59
2022/10/28 01:49:56;;;;;;;14.57;5.32;;;19.50;99.90;;;;;;5094842;28;20424;-59
2022/10/28 01:52:26;;;;;;;13.60;5.60;;;19.50;99.90;;;;;;5095133;28;20028;-59
2022/10/28 01:55:02;;;;;;;18.40;4.82;;;19.60;99.90;;;;;;5094296;28;20024;-59
2022/10/28 01:57:30;;;;;;;16.08;5.82;;;19.50;99.90;;;;;;5094180;28;20056;-59
2022/10/28 01:59:56;;;;;;;10.60;4.90;;;19.50;99.90;;;;;;5094429;28;20012;-59
2022/10/28 02:02:22;;;;;;;15.75;5.68;;;19.50;99.90;;;;;;5095050;28;20036;-59
2022/10/28 02:04:48;;;;;;;13.10;5.57;;;19.50;99.90;;;;;;5095228;28;20021;-59
2022/10/28 02:07:15;;;;;;;13.70;5.60;;;19.60;99.90;;;;;;5094384;28;20034;-59
2022/10/28 02:10:10;;;;;;;15.20;5.13;;;19.70;99.90;;;;;;5094483;28;20021;-59
2022/10/28 02:12:37;;;;;;;11.07;4.90;;;19.60;99.90;;;;;;5094263;28;20043;-59
2022/10/28 02:15:05;;;;;;;14.85;5.13;;;19.70;99.90;;;;;;5094618;28;20040;-59
2022/10/28 02:17:50;;;;;;;14.32;5.35;;;19.80;99.90;;;;;;5080610;28;20074;-59
2022/10/28 02:20:38;;;;;;;16.08;5.75;;;19.90;99.90;;;;;;5073952;28;20033;-59
2022/10/28 02:23:27;;;;;;;10.98;5.07;;;19.80;99.90;;;;;;5074078;28;20039;-59
2022/10/28 02:25:59;;;;;;;12.75;5.03;;;19.80;99.90;;;;;;5073382;28;20027;-59
2022/10/28 02:28:33;;;;;;;14.27;5.43;;;19.70;99.90;;;;;;5072614;28;20028;-60
2022/10/28 02:31:06;;;;;;;13.05;5.07;;;19.70;99.90;;;;;;5074155;28;20029;-59
2022/10/28 02:33:36;;;;;;;11.67;4.77;;;19.60;99.90;;;;;;5073715;28;20024;-59
2022/10/28 02:36:05;;;;;;;15.50;4.90;;;19.60;99.90;;;;;;5093038;28;20161;-59
2022/10/28 02:38:35;;;;;;;15.57;4.70;;;19.60;99.90;;;;;;5094159;28;20111;-59
2022/10/28 02:41:07;;;;;;;12.85;5.50;;;19.50;99.90;;;;;;5093654;28;20052;-59
2022/10/28 02:43:35;;;;;;;11.85;5.00;;;19.40;99.90;;;;;;5093635;28;20394;-59
2022/10/28 02:46:02;;;;;;;15.50;5.15;;;19.40;99.90;;;;;;5093699;28;20389;-59
2022/10/28 02:48:38;;;;;;;18.25;5.47;;;19.40;99.90;;;;;;5093475;28;20103;-59
2022/10/28 02:51:11;;;;;;;14.93;5.20;;;19.30;99.90;;;;;;5094035;28;20035;-59
2022/10/28 02:54:00;;;;;;;16.70;5.30;;;19.30;99.90;;;;;;5094223;28;20035;-59
2022/10/28 02:56:28;;;;;;;12.02;5.10;;;19.30;99.90;;;;;;5093490;28;20032;-59
2022/10/28 02:58:54;;;;;;;10.32;4.75;;;19.20;99.90;;;;;;5093478;28;20025;-59
2022/10/28 03:01:20;;;;;;;16.08;5.88;;;19.30;99.90;;;;;;5093135;28;20114;-59
2022/10/28 03:03:45;;;;;;;11.82;5.03;;;19.20;99.90;;;;;;5093860;28;20521;-59
2022/10/28 03:06:11;;;;;;;10.52;4.72;;;19.20;99.90;;;;;;5093121;28;20155;-59
2022/10/28 03:08:37;;;;;;;13.80;5.18;;;19.10;99.90;;;;;;5093145;28;20131;-59
2022/10/28 03:11:02;;;;;;;18.17;5.18;;;19.10;99.90;;;;;;5093484;28;20455;-59
2022/10/28 03:13:28;;;;;;;10.60;4.68;;;19.10;99.90;;;;;;5093090;28;20073;-59
2022/10/28 03:15:53;;;;;;;9.48;4.90;;;19.10;99.90;;;;;;5092965;28;20062;-59
2022/10/28 03:18:19;;;;;;;18.83;5.25;;;19.10;99.90;;;;;;5078889;28;20078;-59
2022/10/28 03:20:46;;;;;;;12.80;5.40;;;19.20;99.90;;;;;;5072760;28;20025;-59
2022/10/28 03:23:11;;;;;;;10.05;5.00;;;19.00;99.90;;;;;;5072690;28;20024;-59
2022/10/28 03:25:37;;;;;;;17.08;5.43;;;19.10;99.90;;;;;;5072430;28;20223;-59
2022/10/28 03:28:03;;;;;;;12.63;5.28;;;19.00;99.90;;;;;;5072163;28;20017;-59
2022/10/28 03:30:29;;;;;;;14.02;5.28;;;19.10;99.90;;;;;;5072138;28;20035;-60
2022/10/28 03:32:54;;;;;;;12.27;5.15;;;19.20;99.90;;;;;;5072603;28;20021;-59
2022/10/28 03:35:20;;;;;;;13.00;5.00;;;19.20;99.90;;;;;;5085802;28;20062;-59
2022/10/28 03:37:46;;;;;;;12.30;4.82;;;19.20;99.90;;;;;;5093178;28;20024;-59
2022/10/28 03:40:12;;;;;;;14.50;4.70;;;19.20;99.90;;;;;;5092578;28;20434;-59
2022/10/28 03:42:40;;;;;;;12.45;4.63;;;19.00;99.90;;;;;;5092353;28;20091;-59
2022/10/28 03:45:06;;;;;;;14.23;4.95;;;19.20;99.90;;;;;;5092430;28;20177;-59
2022/10/28 03:47:33;;;;;;;15.23;4.78;;;19.20;99.90;;;;;;5092803;28;20049;-59
2022/10/28 03:49:59;;;;;;;15.45;4.68;;;19.20;99.90;;;;;;5092404;28;20039;-59
2022/10/28 03:52:25;;;;;;;13.90;4.78;;;19.20;99.90;;;;;;5092574;28;20016;-59
2022/10/28 03:54:50;;;;;;;12.18;4.80;;;19.10;99.90;;;;;;5091793;28;20036;-59
2022/10/28 03:57:16;;;;;;;13.18;4.60;;;19.00;99.90;;;;;;5092332;28;20027;-59
2022/10/28 03:59:42;;;;;;;18.25;4.95;;;19.00;99.90;;;;;;5092697;28;20443;-59
2022/10/28 04:02:07;;;;;;;14.82;4.80;;;18.90;99.90;;;;;;5092329;28;20020;-59
2022/10/28 04:04:33;;;;;;;16.02;5.35;;;19.00;99.90;;;;;;5092073;28;20470;-59
2022/10/28 04:06:59;;;;;;;17.52;5.10;;;19.00;99.90;;;;;;5091613;28;20074;-59
2022/10/28 04:09:24;;;;;;;14.43;4.78;;;18.90;99.90;;;;;;5091769;28;20031;-59
2022/10/28 04:11:50;;;;;;;14.13;4.50;;;18.80;99.90;;;;;;5092452;28;20126;-59
2022/10/28 04:14:16;;;;;;;10.70;4.50;;;18.80;99.90;;;;;;5092168;28;20401;-59
2022/10/28 04:16:41;;;;;;;11.73;4.38;;;18.90;99.90;;;;;;5091567;28;20032;-59
2022/10/28 04:19:07;;;;;;;11.60;4.63;;;19.00;99.90;;;;;;5071871;28;20021;-59
2022/10/28 04:21:33;;;;;;;15.38;4.63;;;19.00;99.90;;;;;;5072171;28;20497;-59
2022/10/28 04:23:59;;;;;;;17.27;4.72;;;18.90;99.90;;;;;;5071209;28;20074;-59
2022/10/28 04:26:24;;;;;;;12.32;4.55;;;19.00;99.90;;;;;;5071906;28;20111;-59
2022/10/28 04:28:50;;;;;;;17.58;4.72;;;18.90;99.90;;;;;;5071740;28;20028;-58
2022/10/28 04:31:16;;;;;;;13.77;4.45;;;19.00;99.90;;;;;;5071751;28;20032;-59
2022/10/28 04:33:41;;;;;;;9.07;4.40;;;18.90;99.90;;;;;;5071926;28;20112;-59
2022/10/28 04:36:07;;;;;;;12.55;4.18;;;19.00;99.90;;;;;;5071701;28;20387;-59
2022/10/28 04:38:33;;;;;;;13.95;4.97;;;18.90;99.90;;;;;;5071297;28;20028;-59
2022/10/28 04:40:59;;;;;;;11.25;4.88;;;18.90;99.90;;;;;;5071416;28;20052;-59
2022/10/28 04:43:24;;;;;;;12.50;4.95;;;18.90;99.90;;;;;;5079692;28;20020;-59
2022/10/28 04:45:51;;;;;;;17.33;4.80;;;18.80;99.90;;;;;;5091655;28;20048;-59
2022/10/28 04:48:16;;;;;;;12.60;4.43;;;18.80;99.90;;;;;;5091719;28;20063;-59
2022/10/28 04:50:43;;;;;;;15.32;4.68;;;18.90;99.90;;;;;;5091731;28;20040;-59
2022/10/28 04:53:09;;;;;;;14.00;5.13;;;19.00;99.90;;;;;;5091625;28;20051;-59
2022/10/28 04:55:34;;;;;;;15.00;4.85;;;19.00;99.90;;;;;;5091311;28;20063;-59
2022/10/28 04:58:00;;;;;;;12.38;4.50;;;19.00;99.90;;;;;;5091545;28;20028;-59
2022/10/28 05:00:28;;;;;;;14.77;4.50;;;19.00;99.90;;;;;;5091902;28;20087;-59
2022/10/28 05:02:54;;;;;;;12.73;4.97;;;19.10;99.90;;;;;;5091456;28;20063;-59
2022/10/28 05:05:20;;;;;;;17.63;4.53;;;19.10;99.90;;;;;;5091126;28;20075;-59
2022/10/28 05:07:46;;;;;;;12.30;4.43;;;19.00;99.90;;;;;;5092130;28;20462;-59
2022/10/28 05:10:14;;;;;;;16.20;4.53;;;18.90;99.90;;;;;;5091333;28;20039;-59
2022/10/28 05:12:46;;;;;;;10.77;4.18;;;18.70;99.90;;;;;;5091612;28;20024;-59
2022/10/28 05:15:13;;;;;;;11.55;4.03;;;18.70;99.90;;;;;;5091556;28;20346;-59
2022/10/28 05:17:40;;;;;;;13.70;4.57;;;18.60;99.90;;;;;;5090002;28;20024;-59
2022/10/28 05:20:06;;;;;;;20.85;4.88;;;18.70;99.90;;;;;;5073260;28;20021;-59
2022/10/28 05:22:32;;;;;;;15.38;4.93;;;18.60;99.90;;;;;;5075374;28;20056;-59
2022/10/28 05:24:58;;;;;;;16.23;5.10;;;18.60;99.90;;;;;;5074859;28;20048;-59
2022/10/28 05:27:23;;;;;;;12.93;4.97;;;18.70;99.90;;;;;;5075076;28;20475;-59
2022/10/28 05:29:49;;;;;;;14.55;4.70;;;18.70;99.90;;;;;;5075009;28;20028;-59
2022/10/28 05:32:15;;;;;;;13.60;4.88;;;18.70;99.90;;;;;;5074672;28;20467;-59
2022/10/28 05:34:40;;;;;;;17.40;5.13;;;18.70;99.90;;;;;;5082653;28;20039;-59
2022/10/28 05:37:06;;;;;;;12.68;4.97;;;18.70;99.90;;;;;;5095046;28;20024;-59
2022/10/28 05:39:32;;;;;;;13.20;4.50;;;18.60;99.90;;;;;;5095447;28;20110;-59
2022/10/28 05:41:57;;;;;;;13.40;4.70;;;18.70;99.90;;;;;;5094932;28;20024;-59
2022/10/28 05:44:23;;;;;;;10.93;4.40;;;18.70;99.90;;;;;;5094631;28;20412;-59
2022/10/28 05:46:49;;;;;;;15.02;4.78;;;18.70;99.90;;;;;;5094802;28;20115;-58
2022/10/28 05:49:19;;;;;;;12.40;4.53;;;18.70;99.90;;;;;;5094071;28;20020;-59
2022/10/28 05:51:47;;;;;;;13.95;4.32;;;18.70;99.90;;;;;;5094301;28;20032;-59
2022/10/28 05:54:13;;;;;;;15.07;5.13;;;18.80;99.90;;;;;;5094456;28;20447;-59
2022/10/28 05:56:39;;;;;;;14.70;4.93;;;18.80;99.90;;;;;;5094317;28;20103;-59
2022/10/28 05:59:04;;;;;;;11.57;4.15;;;18.70;99.90;;;;;;5095254;28;20073;-59
2022/10/28 06:01:30;;;;;;;10.18;4.30;;;18.80;99.90;;;;;;5094184;28;20028;-58
2022/10/28 06:03:56;;;;;;;11.73;4.32;;;18.80;99.90;;;;;;5093071;28;20047;-59
2022/10/28 06:06:21;;;;;;;15.27;5.00;;;18.80;99.90;;;;;;5094438;28;20039;-59
2022/10/28 06:08:47;;;;;;;9.13;4.70;;;18.80;99.90;;;;;;5093914;28;20502;-58
2022/10/28 06:11:13;;;;;;;13.48;4.82;;;18.90;99.90;;;;;;5093830;28;20078;-59
2022/10/28 06:13:38;;;;;;;12.63;4.55;;;19.00;99.90;;;;;;5093905;28;20020;-59
2022/10/28 06:16:04;;;;;;;11.75;4.30;;;19.00;99.90;;;;;;5093897;28;20435;-59
2022/10/28 06:18:30;;;;;;;9.35;4.40;;;19.00;99.90;;;;;;5092531;28;20036;-59
2022/10/28 06:20:57;;;;;;;13.85;4.93;;;19.00;99.90;;;;;;5074554;28;20078;-59
2022/10/28 06:23:24;;;;;;;15.52;4.80;;;18.90;99.90;;;;;;5074359;28;20016;-59
2022/10/28 06:25:54;;;;;;;10.25;4.35;;;19.00;99.90;;;;;;5073753;28;20471;-59
2022/10/28 06:28:20;;;;;;;13.40;4.70;;;19.00;99.90;;;;;;5073698;28;20028;-59
2022/10/28 06:30:46;;;;;;;8.60;4.50;;;19.00;99.90;;;;;;5073597;28;20046;-59
2022/10/28 06:33:12;;;;;;;12.88;4.75;;;18.90;99.90;;;;;;5073663;28;20021;-59
2022/10/28 06:35:38;;;;;;;9.90;4.38;;;18.90;99.90;;;;;;5089651;28;20058;-59
2022/10/28 06:38:03;;;;;;;15.18;4.82;;;18.80;99.90;;;;;;5094421;28;20043;-59
2022/10/28 06:40:29;;;;;;;12.00;4.35;;;18.80;99.90;;;;;;5093955;28;20051;-59
2022/10/28 06:43:03;;;;;;;11.25;4.40;;;18.90;99.90;;;;;;5094068;28;20434;-60
2022/10/28 06:45:30;;;;;;;14.25;4.65;;;18.90;99.90;;;;;;5093624;28;20024;-59
2022/10/28 06:48:01;;;;;;;12.70;4.85;;;18.80;99.90;;;;;;5093366;28;20073;-59
2022/10/28 06:50:28;;;;;;;12.40;4.72;;;18.90;99.90;;;;;;5093456;28;20024;-58
2022/10/28 06:52:57;;;;;;;12.27;4.57;;;18.90;99.90;;;;;;5093451;28;20477;-58
2022/10/28 06:55:24;;;;;;;16.00;5.30;;;18.80;99.90;;;;;;5092139;28;20095;-61
2022/10/28 06:57:50;;;;;;;14.98;5.10;;;18.80;99.90;;;;;;5093158;28;20025;-59
2022/10/28 07:00:16;;;;;;;16.45;4.70;;;18.80;99.90;;;;;;5093466;28;20024;-59
2022/10/28 07:02:41;;;;;;;16.65;4.78;;;18.80;99.90;;;;;;5093082;28;20435;-60
2022/10/28 07:05:07;;;;;;;14.90;5.45;;;18.70;99.90;;;;;;5093456;28;20036;-59
2022/10/28 07:07:36;;;;;;;18.05;5.50;;;18.70;99.90;;;;;;5093836;28;20077;-59
2022/10/28 07:10:03;;;;;;;17.92;5.10;;;18.60;99.90;;;;;;5093407;28;20023;-59
2022/10/28 07:12:29;;;;;;;11.68;5.00;;;18.70;99.90;;;;;;5093051;28;20446;-59
2022/10/28 07:14:54;;;;;;;17.48;5.88;;;18.60;99.90;;;;;;5093495;28;20036;-59
2022/10/28 07:17:20;;;;;;;13.23;5.50;;;18.60;99.90;;;;;;5092871;28;20035;-59
2022/10/28 07:19:45;;;;;;;15.32;5.18;;;18.70;99.90;;;;;;5093189;28;20059;-59
2022/10/28 07:22:11;;;;;;;17.90;5.82;;;18.70;99.90;;;;;;5093151;28;20434;-59
2022/10/28 07:24:37;;;;;;;8.77;4.38;;;18.60;99.90;;;;;;5093104;28;20050;-59
2022/10/28 07:27:02;;;;;;;14.43;4.93;;;18.60;99.90;;;;;;5093463;28;20039;-59
2022/10/28 07:29:28;;;;;;;16.35;5.65;;;18.70;99.90;;;;;;5093078;28;20032;-59
2022/10/28 07:31:54;;;;;;;11.52;4.97;;;18.80;99.90;;;;;;5092483;28;20116;-59
2022/10/28 07:34:20;;;;;;;15.25;5.45;;;18.90;99.90;;;;;;5093000;28;20039;-59
2022/10/28 07:36:51;;;;;;;12.68;5.00;;;19.00;99.90;;;;;;5093032;28;20036;-59
2022/10/28 07:39:17;;;;;;;14.65;5.20;;;19.00;99.90;;;;;;5093237;28;20048;-58
2022/10/28 07:41:43;;;;;;;17.70;5.63;;;18.90;99.90;;;;;;5092174;28;20044;-66
2022/10/28 07:44:09;;;;;;;10.57;4.75;;;19.00;99.90;;;;;;5092571;28;20474;-66
2022/10/28 07:46:34;;;;;;;12.82;4.53;;;19.20;99.90;;;;;;5092219;28;20024;-66
2022/10/28 07:49:02;;;;;;;11.20;5.15;;;19.50;99.90;;;;;;5092982;28;20118;-66
2022/10/28 07:51:28;;;;;;;16.83;5.60;;;19.80;99.90;;;;;;5092665;28;20028;-66
2022/10/28 07:53:55;;;;;;;16.00;5.38;;;20.00;99.90;;;;;;5092295;28;20074;-67
2022/10/28 07:56:21;;;;;;;13.55;5.28;;;20.20;99.90;;;;;;5092397;28;20097;-67
2022/10/28 07:58:47;;;;;;;11.05;5.50;;;21.30;99.90;;;;;;5092719;28;20486;-67
2022/10/28 08:01:16;;;;;;;13.15;4.75;;;21.90;99.90;;;;;;5091938;28;20135;-67
2022/10/28 08:03:41;;;;;;;8.93;4.30;;;22.90;99.90;;;;;;5092432;28;20027;-67
2022/10/28 08:06:10;;;;;;;13.63;5.38;;;23.30;99.90;;;;;;5092300;28;20390;-67
2022/10/28 08:08:36;;;;;;;14.02;5.25;;;22.60;99.90;;;;;;5092365;28;20045;-67
2022/10/28 08:11:29;;;;;;;14.80;5.38;;;21.90;99.90;;;;;;5092226;28;20024;-67
2022/10/28 08:13:55;;;;;;;17.58;5.95;;;21.40;99.90;;;;;;5089506;28;20458;-67
2022/10/28 08:16:20;;;;;;;8.88;4.78;;;21.30;99.90;;;;;;5092163;28;20054;-67
2022/10/28 08:18:46;;;;;;;9.10;3.95;;;22.40;99.90;;;;;;5092134;28;20039;-68
2022/10/28 08:21:13;;;;;;;9.45;5.07;;;23.30;99.90;;;;;;5092327;28;20020;-67
2022/10/28 08:23:40;;;;;;;10.98;4.60;;;23.10;99.90;;;;;;5092018;28;20579;-67
2022/10/28 08:26:06;;;;;;;15.93;5.47;;;23.30;99.90;;;;;;5091974;28;20038;-67
2022/10/28 08:28:32;;;;;;;11.90;4.82;;;22.80;99.90;;;;;;5092073;28;20030;-67
2022/10/28 08:31:02;;;;;;;9.95;5.10;;;22.30;99.90;;;;;;5092050;28;20028;-68
2022/10/28 08:33:31;;;;;;;8.65;4.30;;;22.20;99.90;;;;;;5091878;28;20028;-67
2022/10/28 08:35:57;;;;;;;8.98;4.10;;;22.10;99.90;;;;;;5091635;28;20039;-67
2022/10/28 08:38:22;;;;;;;14.10;5.60;;;22.20;99.90;;;;;;5091772;28;20107;-67
2022/10/28 08:41:04;;;;;;;13.38;5.32;;;22.40;99.90;;;;;;5090474;28;20052;-67
2022/10/28 08:43:36;;;;;;;14.50;5.25;;;22.00;99.90;;;;;;5091322;28;20043;-67
2022/10/28 08:46:11;;;;;;;12.82;5.03;;;22.00;99.90;;;;;;5092186;28;20031;-67
2022/10/28 08:48:38;;;;;;;8.93;4.70;;;21.90;99.90;;;;;;5092040;28;20098;-67
2022/10/28 08:51:21;;;;;;;15.63;5.53;;;21.90;99.90;;;;;;5091808;28;20374;-67
2022/10/28 08:53:56;;;;;;;17.65;5.57;;;23.20;99.90;;;;;;5094580;28;20103;-67
2022/10/28 08:56:21;;;;;;;10.15;4.20;;;24.40;99.90;;;;;;5096374;28;20123;-67
2022/10/28 08:58:50;;;;;;;11.07;4.63;;;23.60;99.90;;;;;;5095011;28;20534;-67
2022/10/28 09:01:29;;;;;;;16.13;4.78;;;23.30;99.90;;;;;;5095689;28;20020;-67
2022/10/28 09:03:59;;;;;;;10.85;5.07;;;22.60;99.90;;;;;;5095963;28;20028;-67
2022/10/28 09:06:24;;;;;;;13.90;4.93;;;22.80;99.90;;;;;;5095735;28;20055;-67
2022/10/28 09:08:51;;;;;;;10.25;4.32;;;24.80;99.90;;;;;;5095689;28;20068;-67
2022/10/28 09:11:26;;;;;;;14.30;5.50;;;25.90;99.90;;;;;;5095461;28;20032;-67
2022/10/28 09:14:08;;;;;;;9.23;4.40;;;24.70;99.90;;;;;;5094977;28;20448;-67
2022/10/28 09:16:47;;;;;;;20.77;6.63;;;24.10;99.90;;;;;;5095960;28;20097;-67
2022/10/28 09:19:29;;;;;;;14.32;4.53;;;24.10;99.90;;;;;;5094008;28;20383;-66
2022/10/28 09:22:27;;;;;;;13.35;4.68;;;23.90;99.90;;;;;;5095341;28;20031;-66
2022/10/28 09:25:09;;;;;;;8.25;4.28;;;23.80;99.90;;;;;;5094960;28;20039;-67
2022/10/28 09:27:59;;;;;;;11.07;4.63;;;23.60;99.90;;;;;;5095193;28;20103;-66
2022/10/28 09:30:37;;;;;;;7.82;3.97;;;23.40;99.90;;;;;;5095283;28;20029;-67
2022/10/28 09:33:06;;;;;;;6.07;4.00;;;23.80;99.90;;;;;;5095654;28;20432;-66
2022/10/28 09:35:38;;;;;;;8.02;4.15;;;23.80;99.90;;;;;;5094922;28;20051;-66
2022/10/28 09:38:18;;;;;;;11.65;4.70;;;23.60;99.90;;;;;;5095067;28;20016;-66
2022/10/28 09:40:51;;;;;;;10.07;4.45;;;23.30;99.90;;;;;;5094493;28;20528;-66
2022/10/28 09:43:34;;;;;;;8.95;4.53;;;23.20;99.90;;;;;;5094934;28;20021;-66
2022/10/28 09:46:14;;;;;;;13.85;4.63;;;23.20;99.90;;;;;;5094830;28;20024;-66
2022/10/28 09:48:49;;;;;;;11.27;4.15;;;23.40;99.90;;;;;;5094922;28;20035;-66
2022/10/28 09:51:53;;;;;;;5.80;3.80;;;23.30;99.90;;;;;;5094945;28;20012;-66
2022/10/28 09:54:32;;;;;;;7.85;3.80;;;23.40;99.90;;;;;;5094391;28;20040;-66
2022/10/28 09:56:58;;;;;;;8.25;3.88;;;24.00;99.90;;;;;;5094534;28;20024;-66
2022/10/28 09:59:24;;;;;;;7.55;3.97;;;24.80;99.90;;;;;;5094657;28;20032;-66
2022/10/28 10:01:50;;;;;;;7.80;4.07;;;24.70;99.90;;;;;;5095022;28;20496;-66
2022/10/28 10:04:22;;;;;;;14.60;5.60;;;24.20;99.90;;;;;;5092438;28;20046;-66
2022/10/28 10:06:55;;;;;;;12.95;5.00;;;24.40;99.90;;;;;;5094511;28;20534;-66
2022/10/28 10:09:32;;;;;;;15.13;5.10;;;24.30;99.90;;;;;;5094939;28;20035;-66
2022/10/28 10:12:11;;;;;;;17.75;5.47;;;24.40;99.90;;;;;;5094260;28;20390;-66
2022/10/28 10:14:47;;;;;;;12.20;4.80;;;24.80;99.90;;;;;;5094173;28;20483;-66
2022/10/28 10:17:21;;;;;;;16.45;4.90;;;24.50;99.90;;;;;;5094387;28;20093;-67
2022/10/28 10:20:02;;;;;;;9.70;4.65;;;24.40;99.90;;;;;;5094253;28;20115;-66
2022/10/28 10:22:30;;;;;;;9.07;3.97;;;24.00;99.90;;;;;;5093039;28;20428;-66
2022/10/28 10:24:56;;;;;;;16.35;5.10;;;24.00;99.90;;;;;;5094218;28;20016;-66
2022/10/28 10:27:25;;;;;;;9.13;5.30;;;23.90;99.90;;;;;;5093963;28;20150;-66
2022/10/28 10:29:52;;;;;;;8.02;4.18;;;23.90;99.90;;;;;;5094098;28;20020;-66
2022/10/28 10:32:21;;;;;;;14.68;5.72;;;23.70;99.90;;;;;;5094480;28;20093;-66
2022/10/28 10:34:55;;;;;;;18.20;5.53;;;23.50;99.90;;;;;;5093767;28;20047;-66
2022/10/28 10:37:22;;;;;;;12.75;4.93;;;23.50;99.90;;;;;;5093916;28;20480;-66
2022/10/28 10:40:31;;;;;;;8.38;4.10;;;23.40;99.90;;;;;;5093374;28;20574;-66
2022/10/28 10:43:34;;;;;;;8.25;4.10;;;23.30;99.90;;;;;;5091643;28;20485;-66
2022/10/28 10:46:14;;;;;;;8.77;4.43;;;23.20;99.90;;;;;;5091789;28;20031;-66
2022/10/28 10:48:39;;;;;;;7.90;3.83;;;23.20;99.90;;;;;;5091431;28;20040;-66
2022/10/28 10:51:26;;;;;;;7.65;4.55;;;23.10;99.90;;;;;;5091557;28;20024;-66
2022/10/28 10:53:56;;;;;;;15.48;7.07;;;23.10;99.90;;;;;;5090840;28;20467;-66
2022/10/28 10:56:27;;;;;;;13.38;5.75;;;23.30;99.90;;;;;;5091439;28;20035;-66
2022/10/28 10:58:56;;;;;;;16.60;6.05;;;23.50;99.90;;;;;;5091140;28;20077;-66
2022/10/28 11:01:26;;;;;;;17.08;6.63;;;23.30;99.90;;;;;;5091193;28;20051;-66
2022/10/28 11:03:54;;;;;;;14.70;5.78;;;23.20;99.90;;;;;;5091448;28;20028;-66
2022/10/28 11:06:25;;;;;;;13.35;5.88;;;23.10;99.90;;;;;;5091197;28;20090;-66
2022/10/28 11:08:57;;;;;;;8.93;4.85;;;23.20;99.90;;;;;;5090774;28;20360;-66
2022/10/28 11:11:35;;;;;;;7.15;4.10;;;23.30;99.90;;;;;;5091244;28;20506;-66
2022/10/28 11:14:17;;;;;;;11.25;5.47;;;23.20;99.90;;;;;;5073809;28;20058;-66
2022/10/28 11:16:57;;;;;;;16.17;6.00;;;23.50;99.90;;;;;;5090928;28;20036;-66
2022/10/28 11:19:27;;;;;;;13.60;5.20;;;23.80;99.90;;;;;;5091787;28;20035;-66
2022/10/28 11:22:11;;;;;;;13.25;5.63;;;24.00;99.90;;;;;;5093011;28;20024;-66
2022/10/28 11:24:54;;;;;;;18.52;5.30;;;24.10;99.90;;;;;;5093069;28;20233;-66
2022/10/28 11:27:19;;;;;;;10.07;4.85;;;24.20;99.90;;;;;;5092882;28;20494;-66
2022/10/28 11:29:45;;;;;;;9.95;4.50;;;24.40;99.90;;;;;;5093061;28;20160;-66
2022/10/28 11:32:32;;;;;;;9.10;4.65;;;24.30;99.90;;;;;;5093383;28;20024;-66
2022/10/28 11:35:14;;;;;;;9.55;4.57;;;24.20;99.90;;;;;;5092464;28;20039;-66
2022/10/28 11:38:09;;;;;;;9.23;4.40;;;24.30;99.90;;;;;;5092725;28;20028;-66
2022/10/28 11:40:53;;;;;;;9.45;4.70;;;24.30;99.90;;;;;;5092654;28;20090;-66
2022/10/28 11:43:52;;;;;;;9.85;4.90;;;24.20;99.90;;;;;;5092815;28;20043;-66
2022/10/28 11:46:58;;;;;;;15.55;4.70;;;24.40;99.90;;;;;;5092380;28;20024;-66
2022/10/28 11:49:48;;;;;;;8.63;4.07;;;24.70;99.90;;;;;;5092727;28;20427;-65
2022/10/28 11:52:25;;;;;;;11.65;4.82;;;24.70;99.90;;;;;;5092175;28;20363;-66
2022/10/28 11:55:15;;;;;;;12.18;4.75;;;24.80;99.90;;;;;;5092573;28;20028;-66
2022/10/28 11:58:08;;;;;;;15.65;5.57;;;24.80;99.90;;;;;;5092650;28;20032;-65
2022/10/28 12:01:05;;;;;;;11.70;4.72;;;25.60;99.90;;;;;;5092457;28;20038;-65
2022/10/28 12:03:40;;;;;;;10.05;4.20;;;26.10;99.90;;;;;;5092418;28;20273;-65
2022/10/28 12:06:18;;;;;;;15.32;4.68;;;25.90;99.90;;;;;;5092021;28;20098;-65
2022/10/28 12:08:49;;;;;;;7.03;3.92;;;25.80;99.90;;;;;;5092575;28;20051;-65
2022/10/28 12:11:36;;;;;;;12.95;4.78;;;25.80;99.90;;;;;;5092178;28;20429;-65
2022/10/28 12:14:44;;;;;;;12.05;4.85;;;25.90;99.90;;;;;;5092197;28;20024;-65
2022/10/28 12:17:21;;;;;;;10.93;4.38;;;25.90;99.90;;;;;;5091686;28;20064;-65
2022/10/28 12:20:01;;;;;;;11.68;4.50;;;25.40;99.90;;;;;;5091995;28;20397;-65
2022/10/28 12:22:43;;;;;;;12.27;4.80;;;24.90;99.90;;;;;;5091720;28;20032;-65
2022/10/28 12:25:14;;;;;;;20.40;5.93;;;25.40;99.90;;;;;;5092433;28;20064;-65
2022/10/28 12:27:45;;;;;;;10.35;4.40;;;25.60;99.90;;;;;;5091089;28;20474;-65
2022/10/28 12:30:27;;;;;;;11.82;4.90;;;25.80;99.90;;;;;;5092367;28;20027;-65
2022/10/28 12:33:17;;;;;;;8.50;5.07;;;25.80;99.90;;;;;;5091905;28;20030;-65
2022/10/28 12:36:16;;;;;;;15.88;6.13;;;26.00;99.90;;;;;;5091800;28;20032;-65
2022/10/28 12:38:52;;;;;;;13.18;4.90;;;25.80;99.90;;;;;;5089405;28;20032;-65
2022/10/28 12:41:26;;;;;;;8.48;4.13;;;26.10;99.90;;;;;;5089460;28;20075;-65
2022/10/28 12:43:55;;;;;;;8.45;4.20;;;25.70;99.90;;;;;;5089497;28;20071;-65
2022/10/28 12:46:29;;;;;;;14.52;5.30;;;25.10;99.90;;;;;;5089690;28;20028;-65
2022/10/28 12:49:01;;;;;;;10.93;4.30;;;25.40;99.90;;;;;;5089461;28;20127;-65
2022/10/28 12:51:34;;;;;;;10.48;5.15;;;25.10;99.90;;;;;;5089585;28;20059;-65
2022/10/28 12:54:20;;;;;;;10.07;4.53;;;25.60;99.90;;;;;;5089449;28;20024;-65
2022/10/28 12:56:53;;;;;;;8.18;4.10;;;25.70;99.90;;;;;;5089494;28;20086;-65
2022/10/28 13:00:01;;;;;;;10.95;4.50;;;25.70;99.90;;;;;;5072572;28;20025;-65